Time;durP1;ratioP1;P1;durP2;ratioP2;P2;SDS_P1;SDS_P2;PMS_P1;PMS_P2;Temp;Humidity;BMP_temperature;BMP_pressure;BME280_temperature;BME280_humidity;BME280_pressure;Samples;Min_cycle;Max_cycle;Signal;HPM_P1;HPM_P2
2023/06/28 00:00:13;;;;;;;9.43;3.70;;;16.80;99.90;;;;;;4993735;28;20054;-72
2023/06/28 00:02:39;;;;;;;9.80;3.50;;;16.80;99.90;;;;;;4983128;28;20069;-73
2023/06/28 00:05:09;;;;;;;14.30;4.47;;;16.80;99.90;;;;;;4976245;28;20136;-72
2023/06/28 00:07:35;;;;;;;8.40;3.45;;;16.80;99.90;;;;;;4976244;28;20054;-72
2023/06/28 00:10:01;;;;;;;13.82;4.35;;;16.80;99.90;;;;;;4992075;28;20551;-72
2023/06/28 00:12:29;;;;;;;12.85;4.32;;;16.70;99.90;;;;;;4993654;28;20054;-72
2023/06/28 00:14:54;;;;;;;10.77;4.15;;;16.70;99.90;;;;;;4993143;28;20046;-72
2023/06/28 00:17:27;;;;;;;10.18;3.88;;;16.70;99.90;;;;;;4993609;28;20042;-73
2023/06/28 00:19:57;;;;;;;10.02;4.20;;;16.70;99.90;;;;;;4993027;28;20555;-73
2023/06/28 00:22:30;;;;;;;12.93;4.13;;;16.60;99.90;;;;;;4976083;28;20495;-74
2023/06/28 00:25:01;;;;;;;13.77;4.70;;;16.60;99.90;;;;;;4975983;28;20101;-73
2023/06/28 00:27:27;;;;;;;11.60;4.03;;;16.50;99.90;;;;;;4975998;28;20081;-73
2023/06/28 00:29:53;;;;;;;10.50;4.53;;;16.50;99.90;;;;;;4993066;28;20077;-73
2023/06/28 00:32:19;;;;;;;12.68;4.35;;;16.50;99.90;;;;;;4993372;28;20065;-73
2023/06/28 00:34:46;;;;;;;8.60;4.35;;;16.50;99.90;;;;;;4992192;28;20046;-75
2023/06/28 00:37:12;;;;;;;10.20;4.00;;;16.40;99.90;;;;;;4993346;28;20154;-73
2023/06/28 00:39:37;;;;;;;10.60;3.60;;;16.40;99.90;;;;;;4993068;28;20085;-73
2023/06/28 00:42:03;;;;;;;10.38;4.20;;;16.40;99.90;;;;;;4975689;28;20050;-74
2023/06/28 00:44:29;;;;;;;9.30;3.42;;;16.40;99.90;;;;;;4959879;28;20569;-73
2023/06/28 00:46:57;;;;;;;9.20;4.25;;;16.40;99.90;;;;;;4975821;28;20094;-74
2023/06/28 00:49:24;;;;;;;11.07;4.32;;;16.40;99.90;;;;;;4975901;28;20502;-73
2023/06/28 00:51:50;;;;;;;9.38;3.85;;;16.40;99.90;;;;;;4975210;28;20535;-73
2023/06/28 00:54:17;;;;;;;10.20;4.18;;;16.30;99.90;;;;;;4975357;28;20116;-73
2023/06/28 00:56:43;;;;;;;10.50;4.53;;;16.30;99.90;;;;;;4975175;28;20132;-76
2023/06/28 00:59:09;;;;;;;10.65;4.00;;;16.40;99.90;;;;;;4975449;28;20064;-73
2023/06/28 01:01:37;;;;;;;9.80;4.18;;;16.30;99.90;;;;;;4975435;28;20054;-74
2023/06/28 01:04:05;;;;;;;11.15;3.88;;;16.30;99.90;;;;;;4975511;28;20171;-71
2023/06/28 01:06:36;;;;;;;11.73;4.00;;;16.30;99.90;;;;;;4959649;28;20561;-71
2023/06/28 01:09:04;;;;;;;12.10;4.00;;;16.30;99.90;;;;;;4992070;28;20479;-72
2023/06/28 01:11:30;;;;;;;11.50;4.20;;;16.30;99.90;;;;;;4975539;28;20058;-73
2023/06/28 01:13:57;;;;;;;10.05;4.20;;;16.30;99.90;;;;;;4992324;28;20053;-72
2023/06/28 01:16:23;;;;;;;10.93;3.85;;;16.40;99.90;;;;;;4975129;28;20484;-72
2023/06/28 01:18:49;;;;;;;12.95;4.30;;;16.40;99.90;;;;;;4974872;28;20042;-73
2023/06/28 01:21:16;;;;;;;15.02;4.25;;;16.40;99.90;;;;;;4975185;28;20141;-73
2023/06/28 01:23:42;;;;;;;10.57;4.32;;;16.30;99.90;;;;;;4992605;28;20046;-73
2023/06/28 01:26:08;;;;;;;11.32;3.95;;;16.30;99.90;;;;;;4991981;28;20046;-73
2023/06/28 01:28:35;;;;;;;13.77;4.05;;;16.40;99.90;;;;;;4959074;28;20093;-73
2023/06/28 01:31:03;;;;;;;12.20;3.85;;;16.40;99.90;;;;;;4974971;28;20399;-73
2023/06/28 01:33:29;;;;;;;12.07;3.55;;;16.40;99.90;;;;;;4992604;28;20062;-73
2023/06/28 01:35:57;;;;;;;11.07;3.75;;;16.30;99.90;;;;;;4991938;28;20093;-73
2023/06/28 01:38:23;;;;;;;11.30;4.68;;;16.30;99.90;;;;;;4991870;28;20046;-73
2023/06/28 01:40:50;;;;;;;10.65;4.30;;;16.30;99.90;;;;;;4975084;28;20660;-74
2023/06/28 01:43:16;;;;;;;9.38;4.10;;;16.30;99.90;;;;;;4992414;28;20054;-72
2023/06/28 01:45:42;;;;;;;13.60;4.60;;;16.30;99.90;;;;;;4992520;28;20058;-73
2023/06/28 01:48:08;;;;;;;8.90;3.20;;;16.30;99.90;;;;;;4992078;28;20479;-72
2023/06/28 01:50:34;;;;;;;9.75;3.88;;;16.20;99.90;;;;;;4992367;28;20053;-72
2023/06/28 01:53:02;;;;;;;10.68;3.90;;;16.20;99.90;;;;;;4991893;28;20097;-72
2023/06/28 01:55:29;;;;;;;10.43;3.85;;;16.30;99.90;;;;;;4992303;28;20050;-72
2023/06/28 01:57:55;;;;;;;10.50;3.88;;;16.30;99.90;;;;;;4991992;28;20105;-73
2023/06/28 02:00:21;;;;;;;8.80;3.50;;;16.30;99.90;;;;;;4975091;28;20054;-72
2023/06/28 02:02:50;;;;;;;7.53;3.58;;;16.30;99.90;;;;;;4974728;28;20081;-72
2023/06/28 02:05:16;;;;;;;7.75;3.40;;;16.30;99.90;;;;;;4991920;28;20054;-73
2023/06/28 02:07:42;;;;;;;11.15;3.58;;;16.30;99.90;;;;;;4992346;28;20133;-73
2023/06/28 02:10:10;;;;;;;10.40;3.60;;;16.30;99.90;;;;;;4994575;28;20129;-72
2023/06/28 02:12:36;;;;;;;11.55;3.40;;;16.30;99.90;;;;;;4978780;28;20129;-73
2023/06/28 02:15:05;;;;;;;11.27;3.70;;;16.30;99.90;;;;;;4995514;28;20054;-73
2023/06/28 02:17:31;;;;;;;9.10;3.45;;;16.30;99.90;;;;;;4978696;28;20088;-73
2023/06/28 02:20:00;;;;;;;9.18;3.72;;;16.30;99.90;;;;;;4995491;28;20120;-73
2023/06/28 02:22:26;;;;;;;10.48;3.45;;;16.30;99.90;;;;;;4995868;28;20073;-72
2023/06/28 02:24:52;;;;;;;10.00;3.33;;;16.30;99.90;;;;;;4995783;28;20439;-73
2023/06/28 02:27:19;;;;;;;10.90;3.85;;;16.30;99.90;;;;;;4995167;28;20109;-72
2023/06/28 02:29:45;;;;;;;11.73;3.53;;;16.40;99.90;;;;;;4995307;28;20165;-72
2023/06/28 02:32:11;;;;;;;9.60;3.97;;;16.40;99.90;;;;;;4977420;28;20512;-72
2023/06/28 02:34:36;;;;;;;13.18;4.13;;;16.40;99.90;;;;;;4962249;28;20108;-72
2023/06/28 02:37:02;;;;;;;9.90;4.70;;;16.30;99.90;;;;;;4995156;28;20050;-72
2023/06/28 02:39:28;;;;;;;10.05;4.55;;;16.40;99.90;;;;;;4978140;28;20400;-72
2023/06/28 02:41:54;;;;;;;8.07;4.00;;;16.40;99.90;;;;;;4995360;28;20054;-72
2023/06/28 02:44:20;;;;;;;8.60;4.65;;;16.30;99.90;;;;;;4977622;28;20058;-71
2023/06/28 02:46:45;;;;;;;10.52;4.50;;;16.30;99.90;;;;;;4962021;28;20054;-72
2023/06/28 02:49:11;;;;;;;12.70;4.35;;;16.30;99.90;;;;;;4977484;28;20047;-72
2023/06/28 02:51:37;;;;;;;13.00;4.90;;;16.30;99.90;;;;;;4977909;28;20069;-73
2023/06/28 02:54:02;;;;;;;12.80;5.38;;;16.30;99.90;;;;;;4977351;28;20057;-72
2023/06/28 02:56:28;;;;;;;10.07;4.50;;;16.30;99.90;;;;;;4995024;28;20068;-72
2023/06/28 02:58:54;;;;;;;10.75;4.72;;;16.30;99.90;;;;;;4961563;28;20056;-72
2023/06/28 03:01:22;;;;;;;12.75;4.97;;;16.30;99.90;;;;;;4977131;28;20046;-72
2023/06/28 03:03:48;;;;;;;13.43;5.30;;;16.20;99.90;;;;;;4977847;28;20081;-74
2023/06/28 03:06:14;;;;;;;10.63;5.78;;;16.20;99.90;;;;;;4994626;28;20184;-73
2023/06/28 03:08:41;;;;;;;11.77;5.28;;;16.20;99.90;;;;;;4993663;28;20088;-74
2023/06/28 03:11:07;;;;;;;11.40;5.47;;;16.20;99.90;;;;;;4976932;28;20100;-74
2023/06/28 03:13:33;;;;;;;9.18;4.40;;;16.20;99.90;;;;;;4994751;28;20050;-74
2023/06/28 03:15:59;;;;;;;8.82;4.60;;;16.10;99.90;;;;;;4961387;28;20526;-73
2023/06/28 03:18:25;;;;;;;9.55;5.28;;;16.10;99.90;;;;;;4994041;28;20499;-73
2023/06/28 03:20:51;;;;;;;14.75;4.53;;;16.10;99.90;;;;;;4994183;28;20042;-73
2023/06/28 03:23:17;;;;;;;11.45;4.95;;;16.10;99.90;;;;;;4977142;28;20046;-74
2023/06/28 03:25:43;;;;;;;8.90;4.97;;;16.10;99.90;;;;;;4977284;28;20081;-72
2023/06/28 03:28:08;;;;;;;10.23;5.05;;;16.10;99.90;;;;;;4976825;28;20101;-73
2023/06/28 03:30:34;;;;;;;8.63;5.00;;;16.10;99.90;;;;;;4994529;28;20054;-72
2023/06/28 03:33:00;;;;;;;13.02;5.28;;;16.10;99.90;;;;;;4994356;28;20050;-72
2023/06/28 03:35:25;;;;;;;9.90;5.07;;;16.10;99.90;;;;;;4976751;28;20054;-73
2023/06/28 03:37:53;;;;;;;10.35;5.10;;;16.10;99.90;;;;;;4977142;28;20502;-72
2023/06/28 03:40:19;;;;;;;9.70;5.63;;;16.10;99.90;;;;;;4993857;28;20046;-72
2023/06/28 03:42:44;;;;;;;10.75;4.60;;;16.10;99.90;;;;;;4944877;28;20189;-72
2023/06/28 03:45:10;;;;;;;10.07;5.03;;;16.10;99.90;;;;;;4976025;28;20506;-73
2023/06/28 03:47:36;;;;;;;12.27;5.50;;;16.10;99.90;;;;;;4976983;28;20062;-73
2023/06/28 03:50:02;;;;;;;11.07;5.43;;;16.10;99.90;;;;;;4993973;28;20039;-73
2023/06/28 03:52:28;;;;;;;9.88;4.80;;;16.10;99.90;;;;;;4993634;28;20054;-73
2023/06/28 03:54:54;;;;;;;10.80;4.75;;;16.00;99.90;;;;;;4976766;28;20122;-73
2023/06/28 03:57:21;;;;;;;9.63;4.63;;;16.10;99.90;;;;;;4993591;28;20050;-74
2023/06/28 03:59:47;;;;;;;10.98;4.97;;;16.00;99.90;;;;;;4993973;28;20053;-73
2023/06/28 04:02:13;;;;;;;7.80;3.90;;;16.00;99.90;;;;;;4993448;28;20141;-73
2023/06/28 04:04:39;;;;;;;11.23;4.72;;;16.00;99.90;;;;;;4993149;28;20166;-75
2023/06/28 04:07:05;;;;;;;9.25;4.10;;;16.00;99.90;;;;;;4993645;28;20046;-72
2023/06/28 04:09:32;;;;;;;8.48;4.28;;;16.00;99.90;;;;;;4993373;28;20046;-73
2023/06/28 04:11:57;;;;;;;10.00;4.40;;;16.00;99.90;;;;;;4993746;28;20054;-73
2023/06/28 04:14:24;;;;;;;8.18;3.92;;;16.00;99.90;;;;;;4976091;28;20140;-73
2023/06/28 04:16:51;;;;;;;6.60;3.72;;;16.00;99.90;;;;;;4976242;28;20054;-73
2023/06/28 04:19:17;;;;;;;6.55;3.53;;;15.90;99.90;;;;;;4975910;28;20499;-73
2023/06/28 04:21:43;;;;;;;7.85;3.00;;;16.00;99.90;;;;;;4993533;28;20060;-73
2023/06/28 04:24:08;;;;;;;4.95;2.72;;;16.00;99.90;;;;;;4993568;28;20484;-73
2023/06/28 04:26:34;;;;;;;7.18;3.20;;;16.00;99.90;;;;;;4975841;28;20046;-72
2023/06/28 04:29:00;;;;;;;6.10;2.90;;;16.00;99.90;;;;;;4959690;28;20050;-73
2023/06/28 04:31:26;;;;;;;6.28;2.78;;;16.00;99.90;;;;;;4992258;28;20046;-72
2023/06/28 04:33:55;;;;;;;5.10;2.50;;;16.00;99.90;;;;;;4975917;28;20042;-72
2023/06/28 04:36:21;;;;;;;6.30;3.08;;;16.00;99.90;;;;;;4992824;28;20054;-72
2023/06/28 04:38:52;;;;;;;6.13;2.80;;;16.00;99.90;;;;;;4975551;28;20122;-74
2023/06/28 04:41:20;;;;;;;6.15;2.97;;;16.00;99.90;;;;;;4992851;28;20050;-73
2023/06/28 04:43:45;;;;;;;7.40;2.95;;;16.00;99.90;;;;;;4993198;28;20136;-73
2023/06/28 04:46:12;;;;;;;6.43;3.40;;;16.00;99.90;;;;;;4976192;28;20492;-73
2023/06/28 04:48:39;;;;;;;5.40;3.20;;;16.00;99.90;;;;;;4975671;28;20043;-73
2023/06/28 04:51:05;;;;;;;6.70;3.20;;;16.00;99.90;;;;;;4976008;28;20492;-74
2023/06/28 04:53:31;;;;;;;5.82;2.95;;;16.00;99.90;;;;;;4992584;28;20042;-73
2023/06/28 04:55:57;;;;;;;7.57;3.25;;;16.00;99.90;;;;;;4992894;28;20050;-74
2023/06/28 04:58:22;;;;;;;8.30;3.10;;;16.00;99.90;;;;;;4992483;28;20458;-74
2023/06/28 05:00:48;;;;;;;8.15;3.30;;;16.00;99.90;;;;;;4993074;28;20133;-74
2023/06/28 05:03:17;;;;;;;5.55;3.15;;;15.90;99.90;;;;;;4992994;28;20058;-75
2023/06/28 05:05:43;;;;;;;6.75;3.20;;;15.90;99.90;;;;;;4993050;28;20451;-74
2023/06/28 05:08:09;;;;;;;8.80;3.40;;;15.90;99.90;;;;;;4992938;28;20042;-74
2023/06/28 05:10:36;;;;;;;7.03;3.33;;;16.00;99.90;;;;;;4992165;28;20677;-74
2023/06/28 05:13:02;;;;;;;5.85;3.35;;;16.00;99.90;;;;;;4959769;28;20050;-74
2023/06/28 05:15:32;;;;;;;6.95;3.20;;;15.90;99.90;;;;;;4992569;28;20050;-74
2023/06/28 05:17:58;;;;;;;7.13;3.50;;;16.00;99.90;;;;;;4975823;28;20065;-74
2023/06/28 05:20:25;;;;;;;6.78;3.10;;;16.00;99.90;;;;;;4991210;28;20096;-74
2023/06/28 05:23:15;;;;;;;7.07;3.58;;;16.00;99.90;;;;;;4975593;28;20054;-74
2023/06/28 05:25:41;;;;;;;8.48;3.85;;;16.00;99.90;;;;;;4992410;28;20090;-75
2023/06/28 05:28:08;;;;;;;8.30;3.45;;;15.90;99.90;;;;;;4975529;28;20129;-74
2023/06/28 05:30:34;;;;;;;7.10;4.03;;;15.90;99.90;;;;;;4975008;28;20050;-73
2023/06/28 05:33:03;;;;;;;9.60;4.20;;;15.90;99.90;;;;;;4992790;28;20089;-74
2023/06/28 05:35:33;;;;;;;9.00;3.78;;;15.90;99.90;;;;;;4992280;28;20058;-76
2023/06/28 05:38:07;;;;;;;8.57;4.10;;;15.90;99.90;;;;;;4959293;28;20562;-73
2023/06/28 05:40:34;;;;;;;9.02;4.07;;;15.90;99.90;;;;;;4991293;28;20228;-74
2023/06/28 05:43:00;;;;;;;5.20;3.90;;;15.90;99.90;;;;;;4976819;28;20073;-73
2023/06/28 05:45:26;;;;;;;6.60;4.47;;;16.00;99.90;;;;;;4978907;28;20504;-74
2023/06/28 05:47:53;;;;;;;8.02;4.20;;;16.00;99.90;;;;;;4996648;28;20050;-74
2023/06/28 05:50:21;;;;;;;7.82;4.20;;;16.00;99.90;;;;;;4996687;28;20057;-74
2023/06/28 05:52:48;;;;;;;8.68;4.18;;;16.10;99.90;;;;;;4996497;28;20061;-74
2023/06/28 05:55:14;;;;;;;7.35;3.78;;;16.10;99.90;;;;;;4996779;28;20060;-74
2023/06/28 05:57:40;;;;;;;6.65;3.92;;;16.10;99.90;;;;;;4996069;28;20132;-75
2023/06/28 06:00:07;;;;;;;7.72;3.85;;;16.20;99.90;;;;;;4996488;28;20042;-75
2023/06/28 06:02:33;;;;;;;7.78;3.78;;;16.20;99.90;;;;;;4978307;28;20065;-74
2023/06/28 06:05:00;;;;;;;8.48;4.03;;;16.30;99.90;;;;;;4996279;28;20050;-74
2023/06/28 06:07:26;;;;;;;7.63;3.75;;;16.30;99.90;;;;;;4978763;28;20049;-74
2023/06/28 06:09:54;;;;;;;11.30;4.07;;;16.30;99.90;;;;;;4996095;28;20050;-74
2023/06/28 06:12:20;;;;;;;5.82;3.55;;;16.30;99.90;;;;;;4996229;28;20145;-74
2023/06/28 06:14:48;;;;;;;8.68;4.05;;;16.30;99.90;;;;;;4978570;28;20050;-74
2023/06/28 06:17:14;;;;;;;7.82;4.05;;;16.30;99.90;;;;;;4996126;28;20101;-73
2023/06/28 06:19:40;;;;;;;6.78;3.97;;;16.30;99.90;;;;;;4994667;28;20050;-74
2023/06/28 06:22:06;;;;;;;7.03;4.05;;;16.40;99.90;;;;;;4995919;28;20341;-74
2023/06/28 06:24:31;;;;;;;12.95;4.05;;;16.40;99.90;;;;;;4995680;28;20086;-74
2023/06/28 06:26:58;;;;;;;10.98;4.30;;;16.40;99.90;;;;;;4995740;28;20542;-74
2023/06/28 06:29:24;;;;;;;6.88;3.83;;;16.50;99.90;;;;;;4995728;28;20061;-74
2023/06/28 06:31:49;;;;;;;8.10;4.35;;;16.50;99.90;;;;;;4995585;28;20133;-72
2023/06/28 06:34:15;;;;;;;8.82;4.30;;;16.50;99.90;;;;;;4995911;28;20053;-72
2023/06/28 06:36:41;;;;;;;8.48;4.13;;;16.50;99.90;;;;;;4995506;28;20497;-74
2023/06/28 06:39:06;;;;;;;13.25;4.40;;;16.40;99.90;;;;;;4978409;28;20053;-73
2023/06/28 06:41:32;;;;;;;9.20;4.60;;;16.40;99.90;;;;;;4977362;28;20407;-74
2023/06/28 06:43:58;;;;;;;11.18;4.78;;;16.40;99.90;;;;;;4994175;28;20137;-74
2023/06/28 06:46:24;;;;;;;13.38;5.10;;;16.40;99.90;;;;;;4961849;28;20074;-74
2023/06/28 06:48:50;;;;;;;8.52;4.93;;;16.50;99.90;;;;;;4977586;28;20049;-77
2023/06/28 06:51:16;;;;;;;14.35;5.25;;;16.50;99.90;;;;;;4978031;28;20432;-75
2023/06/28 06:53:42;;;;;;;10.07;5.10;;;16.50;99.90;;;;;;4977382;28;20133;-76
2023/06/28 06:56:07;;;;;;;9.95;5.50;;;16.50;99.90;;;;;;4994516;28;20046;-74
2023/06/28 06:58:33;;;;;;;10.55;5.88;;;16.50;99.90;;;;;;4994754;28;20042;-75
2023/06/28 07:00:59;;;;;;;12.18;6.22;;;16.50;99.90;;;;;;4977977;28;20134;-76
2023/06/28 07:03:25;;;;;;;12.25;5.93;;;16.50;99.90;;;;;;4995143;28;20054;-74
2023/06/28 07:05:51;;;;;;;12.48;6.68;;;16.50;99.90;;;;;;4994860;28;20627;-74
2023/06/28 07:08:17;;;;;;;13.13;6.47;;;16.40;99.90;;;;;;4977458;28;20061;-77
2023/06/28 07:10:43;;;;;;;12.20;6.60;;;16.40;99.90;;;;;;4977423;28;20047;-75
2023/06/28 07:13:10;;;;;;;15.25;7.45;;;16.40;99.90;;;;;;4961518;28;20511;-75
2023/06/28 07:15:36;;;;;;;13.98;7.18;;;16.50;99.90;;;;;;4994655;28;20492;-74
2023/06/28 07:18:02;;;;;;;16.95;7.82;;;16.40;99.90;;;;;;4977533;28;20044;-74
2023/06/28 07:20:27;;;;;;;20.73;12.35;;;16.40;99.90;;;;;;4977512;28;20100;-72
2023/06/28 07:22:53;;;;;;;15.50;9.02;;;16.40;99.90;;;;;;4976830;28;20046;-74
2023/06/28 07:25:19;;;;;;;16.00;10.48;;;16.40;99.90;;;;;;4994529;28;20050;-73
2023/06/28 07:27:45;;;;;;;15.50;8.93;;;16.50;99.90;;;;;;4994301;28;20046;-74
2023/06/28 07:30:11;;;;;;;17.20;10.88;;;16.40;99.90;;;;;;4993556;28;20058;-74
2023/06/28 07:32:37;;;;;;;15.70;8.55;;;16.50;99.90;;;;;;4961064;28;20086;-74
2023/06/28 07:35:02;;;;;;;15.00;8.40;;;16.50;99.90;;;;;;4977172;28;20050;-75
2023/06/28 07:37:30;;;;;;;14.10;8.05;;;16.50;99.90;;;;;;4976877;28;20144;-73
2023/06/28 07:39:57;;;;;;;15.10;7.75;;;16.60;99.90;;;;;;4977122;28;20116;-75
2023/06/28 07:42:23;;;;;;;13.57;8.02;;;16.60;99.90;;;;;;4994502;28;20110;-74
2023/06/28 07:44:49;;;;;;;11.68;7.90;;;16.70;99.90;;;;;;4976297;28;20514;-75
2023/06/28 07:47:15;;;;;;;14.60;8.63;;;16.70;99.90;;;;;;4994252;28;20133;-74
2023/06/28 07:49:41;;;;;;;20.42;10.05;;;16.70;99.90;;;;;;4976471;28;20073;-74
2023/06/28 07:52:07;;;;;;;14.52;8.50;;;16.70;99.90;;;;;;4994275;28;20488;-74
2023/06/28 07:54:33;;;;;;;15.73;9.10;;;16.70;99.90;;;;;;4976660;28;20499;-74
2023/06/28 07:56:59;;;;;;;14.43;8.52;;;16.80;99.90;;;;;;4960450;28;20062;-75
2023/06/28 07:59:25;;;;;;;14.52;8.85;;;16.90;99.90;;;;;;4994272;28;20054;-74
2023/06/28 08:01:50;;;;;;;13.70;8.25;;;16.90;99.90;;;;;;4960221;28;20054;-75
2023/06/28 08:04:17;;;;;;;11.77;7.85;;;17.00;99.90;;;;;;4994067;28;20128;-75
2023/06/28 08:06:43;;;;;;;13.13;7.70;;;17.10;99.90;;;;;;4976250;28;20043;-75
2023/06/28 08:09:09;;;;;;;14.43;7.82;;;17.10;99.90;;;;;;4976221;28;20046;-75
2023/06/28 08:11:35;;;;;;;12.77;7.53;;;17.10;99.90;;;;;;4960381;28;20119;-74
2023/06/28 08:14:01;;;;;;;10.20;7.80;;;17.10;99.90;;;;;;4960146;28;20056;-74
2023/06/28 08:16:27;;;;;;;9.55;7.40;;;17.10;99.90;;;;;;4993583;28;20050;-75
2023/06/28 08:18:53;;;;;;;13.73;9.10;;;17.10;99.90;;;;;;4993273;28;20105;-74
2023/06/28 08:21:19;;;;;;;12.75;8.77;;;17.10;99.90;;;;;;4993332;28;20050;-77
2023/06/28 08:23:45;;;;;;;13.90;7.35;;;17.10;99.90;;;;;;4944059;28;20145;-75
2023/06/28 08:26:10;;;;;;;9.88;7.60;;;17.10;99.90;;;;;;4960307;28;20483;-75
2023/06/28 08:28:36;;;;;;;11.63;7.75;;;17.20;99.90;;;;;;4975990;28;20077;-74
2023/06/28 08:31:02;;;;;;;14.48;7.38;;;17.30;99.90;;;;;;4992791;28;20053;-74
2023/06/28 08:33:28;;;;;;;11.88;7.45;;;17.30;99.90;;;;;;4976132;28;20129;-74
2023/06/28 08:35:53;;;;;;;12.32;7.47;;;17.40;99.90;;;;;;4959444;28;20046;-74
2023/06/28 08:38:19;;;;;;;11.48;6.88;;;17.40;99.90;;;;;;4993311;28;20047;-74
2023/06/28 08:40:45;;;;;;;10.80;6.57;;;17.40;99.90;;;;;;4975969;28;20448;-79
2023/06/28 08:43:16;;;;;;;9.95;6.53;;;17.40;99.90;;;;;;4960294;28;20154;-73
2023/06/28 08:45:44;;;;;;;12.48;7.15;;;17.40;99.90;;;;;;4960372;28;20054;-64
2023/06/28 08:48:11;;;;;;;12.95;7.07;;;17.40;99.90;;;;;;4991904;28;20042;-64
2023/06/28 08:50:43;;;;;;;12.25;7.10;;;17.40;99.90;;;;;;4989946;28;20118;-64
2023/06/28 08:53:16;;;;;;;12.70;7.70;;;17.50;99.90;;;;;;4992051;28;20046;-64
2023/06/28 08:55:46;;;;;;;10.95;7.35;;;17.40;99.90;;;;;;4991951;28;20050;-64
2023/06/28 08:58:12;;;;;;;10.98;7.10;;;17.50;99.90;;;;;;4991908;28;20054;-64
2023/06/28 09:00:41;;;;;;;13.90;7.60;;;17.50;99.90;;;;;;4992429;28;20050;-64
2023/06/28 09:03:09;;;;;;;11.40;6.60;;;17.50;99.90;;;;;;4990650;28;20160;-72
2023/06/28 09:05:36;;;;;;;12.77;7.22;;;17.50;99.90;;;;;;4992152;28;20065;-64
2023/06/28 09:08:02;;;;;;;10.98;6.78;;;17.50;99.90;;;;;;4990882;28;20129;-66
2023/06/28 09:10:28;;;;;;;11.32;7.50;;;17.40;99.90;;;;;;4992201;28;20050;-65
2023/06/28 09:12:55;;;;;;;20.42;9.68;;;17.40;99.90;;;;;;4992001;28;20073;-65
2023/06/28 09:15:22;;;;;;;12.15;7.80;;;17.40;99.90;;;;;;4991324;28;20085;-65
2023/06/28 09:17:48;;;;;;;15.57;9.55;;;17.40;99.90;;;;;;4991502;28;20046;-73
2023/06/28 09:20:18;;;;;;;13.23;7.78;;;17.40;99.90;;;;;;4989306;28;20365;-65
2023/06/28 09:22:57;;;;;;;12.90;7.65;;;17.40;99.90;;;;;;4971077;28;20488;-66
2023/06/28 09:25:25;;;;;;;10.80;6.95;;;17.40;99.90;;;;;;4974384;28;20495;-66
2023/06/28 09:27:50;;;;;;;13.40;8.48;;;17.40;99.90;;;;;;4991426;28;20051;-72
2023/06/28 09:30:18;;;;;;;13.57;8.57;;;17.40;99.90;;;;;;4991449;28;20042;-65
2023/06/28 09:32:50;;;;;;;40.67;13.32;;;17.40;99.90;;;;;;4992138;28;20051;-66
2023/06/28 09:35:19;;;;;;;18.90;10.52;;;17.40;99.90;;;;;;4991262;28;20503;-66
2023/06/28 09:37:57;;;;;;;18.05;9.60;;;17.50;99.90;;;;;;4991398;28;20050;-65
2023/06/28 09:40:23;;;;;;;17.33;9.77;;;17.40;99.90;;;;;;4974997;28;20094;-66
2023/06/28 09:42:50;;;;;;;18.20;10.07;;;17.40;99.90;;;;;;4991131;28;20120;-65
2023/06/28 09:45:35;;;;;;;13.10;8.65;;;17.40;99.90;;;;;;4991524;28;20046;-66
2023/06/28 09:48:03;;;;;;;14.88;9.45;;;17.50;99.90;;;;;;4974544;28;20095;-68
2023/06/28 09:50:44;;;;;;;13.32;9.23;;;17.50;99.90;;;;;;4990255;28;20046;-64
2023/06/28 09:53:15;;;;;;;12.23;8.88;;;17.60;99.90;;;;;;4990408;28;20047;-68
2023/06/28 09:55:42;;;;;;;18.80;10.52;;;17.60;99.90;;;;;;4992075;28;20042;-66
2023/06/28 09:58:14;;;;;;;12.93;10.48;;;17.70;99.90;;;;;;4991312;28;20054;-68
2023/06/28 10:00:42;;;;;;;16.70;9.45;;;17.60;99.90;;;;;;4991774;28;20054;-65
2023/06/28 10:03:10;;;;;;;15.77;11.05;;;17.60;99.90;;;;;;4991365;28;20476;-65
2023/06/28 10:05:38;;;;;;;14.63;11.30;;;17.60;99.90;;;;;;4992040;28;20141;-66
2023/06/28 10:08:13;;;;;;;16.60;10.80;;;17.60;99.90;;;;;;4974100;28;20436;-68
2023/06/28 10:10:40;;;;;;;17.75;11.13;;;17.50;99.90;;;;;;4992017;28;20389;-66
2023/06/28 10:13:08;;;;;;;16.58;11.55;;;17.60;99.90;;;;;;4990884;28;20046;-67
2023/06/28 10:15:39;;;;;;;15.13;11.38;;;17.60;99.90;;;;;;4988877;28;20046;-66
2023/06/28 10:18:05;;;;;;;15.35;11.52;;;17.60;99.90;;;;;;4989819;28;20042;-65
2023/06/28 10:20:31;;;;;;;14.95;10.82;;;17.60;99.90;;;;;;4990553;28;20451;-66
2023/06/28 10:22:58;;;;;;;17.13;11.90;;;17.60;99.90;;;;;;4991251;28;20042;-78
2023/06/28 10:25:27;;;;;;;16.65;11.27;;;17.70;99.90;;;;;;4971478;28;20105;-65
2023/06/28 10:27:54;;;;;;;18.00;10.93;;;17.70;99.90;;;;;;4990073;28;20440;-65
2023/06/28 10:30:22;;;;;;;16.08;11.52;;;17.70;99.90;;;;;;4991298;28;20046;-66
2023/06/28 10:32:49;;;;;;;20.77;11.75;;;17.80;99.90;;;;;;4994272;28;20125;-67
2023/06/28 10:35:15;;;;;;;15.23;10.18;;;17.80;99.90;;;;;;4994132;28;20112;-71
2023/06/28 10:37:41;;;;;;;16.13;11.65;;;17.80;99.90;;;;;;4976842;28;20069;-67
2023/06/28 10:40:09;;;;;;;14.80;10.95;;;17.80;99.90;;;;;;4994275;28;20444;-68
2023/06/28 10:42:41;;;;;;;16.45;11.80;;;17.80;99.90;;;;;;4993909;28;20514;-67
2023/06/28 10:45:08;;;;;;;18.35;11.38;;;17.80;99.90;;;;;;4974980;28;20050;-68
2023/06/28 10:47:35;;;;;;;14.43;10.98;;;17.80;99.90;;;;;;4995114;28;20057;-68
2023/06/28 10:50:04;;;;;;;17.67;11.13;;;17.80;99.90;;;;;;4994628;28;20137;-69
2023/06/28 10:52:30;;;;;;;19.60;11.73;;;17.80;99.90;;;;;;4994760;28;20129;-68
2023/06/28 10:54:56;;;;;;;23.42;11.85;;;17.80;99.90;;;;;;4977658;28;20187;-67
2023/06/28 10:57:37;;;;;;;38.13;29.95;;;17.80;99.90;;;;;;4994600;28;20042;-66
2023/06/28 11:00:42;;;;;;;22.58;12.70;;;17.70;99.90;;;;;;4976921;28;20511;-67
2023/06/28 11:03:08;;;;;;;14.63;11.98;;;17.70;99.90;;;;;;4994266;28;20120;-68
2023/06/28 11:06:00;;;;;;;18.17;12.38;;;17.70;99.90;;;;;;4994248;28;20133;-68
2023/06/28 11:08:39;;;;;;;15.38;10.93;;;17.70;99.90;;;;;;4990674;28;20051;-67
2023/06/28 11:11:08;;;;;;;17.67;11.55;;;17.70;99.90;;;;;;4994402;28;20134;-68
2023/06/28 11:13:39;;;;;;;15.65;11.05;;;17.70;99.90;;;;;;4994722;28;20081;-70
2023/06/28 11:16:10;;;;;;;15.52;12.07;;;17.80;99.90;;;;;;4994501;28;20084;-68
2023/06/28 11:18:37;;;;;;;17.98;11.65;;;17.80;99.90;;;;;;4994755;28;20039;-68
2023/06/28 11:21:03;;;;;;;18.48;11.88;;;17.80;99.90;;;;;;4994320;28;20050;-76
2023/06/28 11:23:40;;;;;;;15.48;11.77;;;17.90;99.90;;;;;;4994393;28;20053;-67
2023/06/28 11:26:07;;;;;;;13.38;11.35;;;17.80;99.90;;;;;;4977108;28;20051;-68
2023/06/28 11:28:34;;;;;;;23.13;14.95;;;17.90;99.90;;;;;;4976973;28;20125;-67
2023/06/28 11:31:22;;;;;;;16.98;11.77;;;17.90;99.90;;;;;;4994431;28;20054;-67
2023/06/28 11:33:49;;;;;;;18.08;13.50;;;17.80;99.90;;;;;;4994232;28;20452;-67
2023/06/28 11:36:16;;;;;;;21.52;13.88;;;17.80;99.90;;;;;;4994232;28;20062;-67
2023/06/28 11:38:46;;;;;;;23.50;14.18;;;17.70;99.90;;;;;;4994464;28;20050;-67
2023/06/28 11:41:14;;;;;;;16.20;12.52;;;17.70;99.90;;;;;;4976357;28;20042;-67
2023/06/28 11:43:43;;;;;;;15.27;11.38;;;17.70;99.90;;;;;;4976845;28;20396;-67
2023/06/28 11:46:09;;;;;;;17.77;12.55;;;17.70;99.90;;;;;;4993799;28;20054;-66
2023/06/28 11:48:35;;;;;;;21.17;15.00;;;17.70;99.90;;;;;;4993805;28;20042;-70
2023/06/28 11:51:04;;;;;;;20.10;13.70;;;17.70;99.90;;;;;;4993920;28;20043;-65
2023/06/28 11:53:31;;;;;;;17.70;14.18;;;17.70;99.90;;;;;;4993554;28;20113;-66
2023/06/28 11:55:58;;;;;;;19.98;13.77;;;17.70;99.90;;;;;;4993611;28;20042;-73
2023/06/28 11:58:31;;;;;;;17.77;13.73;;;17.70;99.90;;;;;;4976337;28;20050;-69
2023/06/28 12:00:58;;;;;;;15.80;13.63;;;17.70;99.90;;;;;;4976585;28;20464;-69
2023/06/28 12:03:30;;;;;;;22.35;14.82;;;17.70;99.90;;;;;;4991837;28;20061;-69
2023/06/28 12:05:56;;;;;;;21.15;14.50;;;17.70;99.90;;;;;;4993947;28;20057;-66
2023/06/28 12:08:22;;;;;;;21.48;14.70;;;17.70;99.90;;;;;;4993461;28;20046;-66
2023/06/28 12:10:48;;;;;;;18.10;14.13;;;17.80;99.90;;;;;;4993622;28;20348;-66
2023/06/28 12:13:21;;;;;;;19.60;15.23;;;17.80;99.90;;;;;;4993175;28;20050;-67
2023/06/28 12:15:48;;;;;;;19.97;14.30;;;17.80;99.90;;;;;;4993635;28;20086;-67
2023/06/28 12:18:14;;;;;;;34.72;17.08;;;17.80;99.90;;;;;;4975849;28;20042;-66
2023/06/28 12:20:39;;;;;;;24.98;16.48;;;17.90;99.90;;;;;;4993452;28;20046;-67
2023/06/28 12:23:12;;;;;;;22.88;16.35;;;18.00;99.90;;;;;;4975854;28;20459;-66
2023/06/28 12:25:44;;;;;;;22.02;16.63;;;18.00;99.90;;;;;;4993030;28;20553;-67
2023/06/28 12:28:14;;;;;;;24.73;17.33;;;18.00;99.90;;;;;;4976065;28;20514;-76
2023/06/28 12:30:40;;;;;;;27.35;17.85;;;18.00;99.90;;;;;;4976066;28;20050;-68
2023/06/28 12:33:08;;;;;;;23.05;17.05;;;18.10;99.90;;;;;;4993131;28;20530;-67
2023/06/28 12:35:34;;;;;;;21.48;17.02;;;18.10;99.90;;;;;;4992606;28;20057;-66
2023/06/28 12:38:02;;;;;;;22.95;18.60;;;18.20;99.90;;;;;;4993113;28;20055;-67